TOL weather

Toledo Express Airport
Toledo, Ohio, United States

Public forecast

Using degrees Fahrenheit for public forecast. Weather courtesy of forecast.io.

Current aviation weather report (METAR) for Toledo Express Airport

Retrieved 2019/10/17 10:52 UTC (33 minutes ago):

KTOL 171052Z 29009G16KT 10SM CLR 06/01 A2990 RMK AO2 SLP127 T00610011

Aviation forecast (TAF) for Toledo Express Airport

Retrieved 2019/10/17 06:42 UTC (5 hours ago):

TAF KTOL 170539Z 1706/1806 30013KT P6SM SCT040 FM171200 30012G20KT P6SM BKN045 FM180000 31009KT P6SM SCT035